sensor_id;sensor_type;location;lat;lon;timestamp;temperature;humidity
37340;DHT22;23223;51.006;7.610;2024-01-07T00:01:56;5.50;99.90
37340;DHT22;23223;51.006;7.610;2024-01-07T00:04:21;5.70;99.90
37340;DHT22;23223;51.006;7.610;2024-01-07T00:06:47;5.50;99.90
37340;DHT22;23223;51.006;7.610;2024-01-07T00:09:13;5.20;99.90
37340;DHT22;23223;51.006;7.610;2024-01-07T00:11:39;4.80;99.90
37340;DHT22;23223;51.006;7.610;2024-01-07T00:14:05;4.50;99.90
37340;DHT22;23223;51.006;7.610;2024-01-07T00:16:31;4.50;99.90
37340;DHT22;23223;51.006;7.610;2024-01-07T00:18:56;4.30;99.90
37340;DHT22;23223;51.006;7.610;2024-01-07T00:21:22;4.50;99.90
37340;DHT22;23223;51.006;7.610;2024-01-07T00:23:48;4.40;99.90
37340;DHT22;23223;51.006;7.610;2024-01-07T00:26:14;4.20;99.90
37340;DHT22;23223;51.006;7.610;2024-01-07T00:28:39;4.20;99.90
37340;DHT22;23223;51.006;7.610;2024-01-07T00:31:05;4.30;99.90
37340;DHT22;23223;51.006;7.610;2024-01-07T00:33:32;4.50;99.90
37340;DHT22;23223;51.006;7.610;2024-01-07T00:35:59;4.40;99.90
37340;DHT22;23223;51.006;7.610;2024-01-07T00:38:25;4.40;99.90
37340;DHT22;23223;51.006;7.610;2024-01-07T00:40:50;4.60;99.90
37340;DHT22;23223;51.006;7.610;2024-01-07T00:43:16;5.00;99.90
37340;DHT22;23223;51.006;7.610;2024-01-07T00:45:41;5.50;99.90
37340;DHT22;23223;51.006;7.610;2024-01-07T00:48:07;5.70;99.90
37340;DHT22;23223;51.006;7.610;2024-01-07T00:50:33;5.50;99.90
37340;DHT22;23223;51.006;7.610;2024-01-07T00:52:58;5.30;99.90
37340;DHT22;23223;51.006;7.610;2024-01-07T00:55:24;5.40;99.90
37340;DHT22;23223;51.006;7.610;2024-01-07T00:57:50;5.50;99.90
37340;DHT22;23223;51.006;7.610;2024-01-07T01:00:16;5.30;99.90
37340;DHT22;23223;51.006;7.610;2024-01-07T01:02:42;4.90;99.90
37340;DHT22;23223;51.006;7.610;2024-01-07T01:05:07;4.50;99.90
37340;DHT22;23223;51.006;7.610;2024-01-07T01:07:33;4.30;99.90
37340;DHT22;23223;51.006;7.610;2024-01-07T01:09:59;4.10;99.90
37340;DHT22;23223;51.006;7.610;2024-01-07T01:12:24;4.20;99.90
37340;DHT22;23223;51.006;7.610;2024-01-07T01:14:50;4.70;99.90
37340;DHT22;23223;51.006;7.610;2024-01-07T01:17:15;4.90;99.90
37340;DHT22;23223;51.006;7.610;2024-01-07T01:19:41;4.80;99.90
37340;DHT22;23223;51.006;7.610;2024-01-07T01:22:07;4.60;99.90
37340;DHT22;23223;51.006;7.610;2024-01-07T01:24:32;4.70;99.90
37340;DHT22;23223;51.006;7.610;2024-01-07T01:26:58;4.80;99.90
37340;DHT22;23223;51.006;7.610;2024-01-07T01:29:24;4.50;99.90
37340;DHT22;23223;51.006;7.610;2024-01-07T01:31:49;4.40;99.90
37340;DHT22;23223;51.006;7.610;2024-01-07T01:34:15;4.60;99.90
37340;DHT22;23223;51.006;7.610;2024-01-07T01:36:40;4.80;99.90
37340;DHT22;23223;51.006;7.610;2024-01-07T01:39:06;5.00;99.90
37340;DHT22;23223;51.006;7.610;2024-01-07T01:41:32;5.20;99.90
37340;DHT22;23223;51.006;7.610;2024-01-07T01:43:59;5.00;99.90
37340;DHT22;23223;51.006;7.610;2024-01-07T01:46:25;4.70;99.90
37340;DHT22;23223;51.006;7.610;2024-01-07T01:48:51;4.70;99.90
37340;DHT22;23223;51.006;7.610;2024-01-07T01:51:17;4.80;99.90
37340;DHT22;23223;51.006;7.610;2024-01-07T01:53:44;4.70;99.90
37340;DHT22;23223;51.006;7.610;2024-01-07T01:56:10;4.80;99.90
37340;DHT22;23223;51.006;7.610;2024-01-07T01:58:36;4.80;99.90
37340;DHT22;23223;51.006;7.610;2024-01-07T02:01:03;4.70;99.90
37340;DHT22;23223;51.006;7.610;2024-01-07T02:03:29;4.70;99.90
37340;DHT22;23223;51.006;7.610;2024-01-07T02:05:56;4.90;99.90
37340;DHT22;23223;51.006;7.610;2024-01-07T02:08:22;4.80;99.90
37340;DHT22;23223;51.006;7.610;2024-01-07T02:10:48;4.60;99.90
37340;DHT22;23223;51.006;7.610;2024-01-07T02:13:13;4.60;99.90
37340;DHT22;23223;51.006;7.610;2024-01-07T02:15:39;4.60;99.90
37340;DHT22;23223;51.006;7.610;2024-01-07T02:18:05;4.30;99.90
37340;DHT22;23223;51.006;7.610;2024-01-07T02:20:30;4.20;99.90
37340;DHT22;23223;51.006;7.610;2024-01-07T02:22:56;4.40;99.90
37340;DHT22;23223;51.006;7.610;2024-01-07T02:25:24;4.70;99.90
37340;DHT22;23223;51.006;7.610;2024-01-07T02:27:50;4.90;99.90
37340;DHT22;23223;51.006;7.610;2024-01-07T02:30:16;5.10;99.90
37340;DHT22;23223;51.006;7.610;2024-01-07T02:32:42;5.20;99.90
37340;DHT22;23223;51.006;7.610;2024-01-07T02:35:08;5.30;99.90
37340;DHT22;23223;51.006;7.610;2024-01-07T02:37:34;5.10;99.90
37340;DHT22;23223;51.006;7.610;2024-01-07T02:40:00;4.70;99.90
37340;DHT22;23223;51.006;7.610;2024-01-07T02:42:25;4.40;99.90
37340;DHT22;23223;51.006;7.610;2024-01-07T02:44:51;4.30;99.90
37340;DHT22;23223;51.006;7.610;2024-01-07T02:47:16;4.10;99.90
37340;DHT22;23223;51.006;7.610;2024-01-07T02:49:42;4.00;99.90
37340;DHT22;23223;51.006;7.610;2024-01-07T02:52:07;3.90;99.90
37340;DHT22;23223;51.006;7.610;2024-01-07T02:54:33;3.90;99.90
37340;DHT22;23223;51.006;7.610;2024-01-07T02:56:59;3.90;99.90
37340;DHT22;23223;51.006;7.610;2024-01-07T02:59:24;3.90;99.90
37340;DHT22;23223;51.006;7.610;2024-01-07T03:01:50;3.80;99.90
37340;DHT22;23223;51.006;7.610;2024-01-07T03:04:16;3.70;99.90
37340;DHT22;23223;51.006;7.610;2024-01-07T03:06:41;3.70;99.90
37340;DHT22;23223;51.006;7.610;2024-01-07T03:09:07;3.70;99.90
37340;DHT22;23223;51.006;7.610;2024-01-07T03:11:33;3.70;99.90
37340;DHT22;23223;51.006;7.610;2024-01-07T03:13:58;3.70;99.90
37340;DHT22;23223;51.006;7.610;2024-01-07T03:16:26;4.20;99.90
37340;DHT22;23223;51.006;7.610;2024-01-07T03:18:52;4.80;99.90
37340;DHT22;23223;51.006;7.610;2024-01-07T03:21:22;5.40;99.90
37340;DHT22;23223;51.006;7.610;2024-01-07T03:23:49;5.80;99.90
37340;DHT22;23223;51.006;7.610;2024-01-07T03:26:16;6.10;99.90
37340;DHT22;23223;51.006;7.610;2024-01-07T03:28:42;6.30;99.90
37340;DHT22;23223;51.006;7.610;2024-01-07T03:31:18;6.40;99.90
37340;DHT22;23223;51.006;7.610;2024-01-07T03:33:44;6.20;99.90
37340;DHT22;23223;51.006;7.610;2024-01-07T03:36:11;6.00;99.90
37340;DHT22;23223;51.006;7.610;2024-01-07T03:38:37;5.70;99.90
37340;DHT22;23223;51.006;7.610;2024-01-07T03:41:03;5.30;99.90
37340;DHT22;23223;51.006;7.610;2024-01-07T03:43:29;5.00;99.90
37340;DHT22;23223;51.006;7.610;2024-01-07T03:45:55;4.60;99.90
37340;DHT22;23223;51.006;7.610;2024-01-07T03:48:20;4.30;99.90
37340;DHT22;23223;51.006;7.610;2024-01-07T03:50:46;4.00;99.90
37340;DHT22;23223;51.006;7.610;2024-01-07T03:53:12;4.20;99.90
37340;DHT22;23223;51.006;7.610;2024-01-07T03:55:38;4.50;99.90
37340;DHT22;23223;51.006;7.610;2024-01-07T03:58:04;4.50;99.90
37340;DHT22;23223;51.006;7.610;2024-01-07T04:00:31;4.90;99.90
37340;DHT22;23223;51.006;7.610;2024-01-07T04:02:56;5.10;99.90
37340;DHT22;23223;51.006;7.610;2024-01-07T04:05:22;5.20;99.90
37340;DHT22;23223;51.006;7.610;2024-01-07T04:07:48;5.20;99.90
37340;DHT22;23223;51.006;7.610;2024-01-07T04:10:16;5.10;99.90
37340;DHT22;23223;51.006;7.610;2024-01-07T04:12:42;5.00;99.90
37340;DHT22;23223;51.006;7.610;2024-01-07T04:15:08;4.90;99.90
37340;DHT22;23223;51.006;7.610;2024-01-07T04:17:34;4.80;99.90
37340;DHT22;23223;51.006;7.610;2024-01-07T04:19:59;4.60;99.90
37340;DHT22;23223;51.006;7.610;2024-01-07T04:22:25;4.50;99.90
37340;DHT22;23223;51.006;7.610;2024-01-07T04:24:50;4.50;99.90
37340;DHT22;23223;51.006;7.610;2024-01-07T04:27:16;4.30;99.90
37340;DHT22;23223;51.006;7.610;2024-01-07T04:29:41;4.10;99.90
37340;DHT22;23223;51.006;7.610;2024-01-07T04:32:07;3.80;99.90
37340;DHT22;23223;51.006;7.610;2024-01-07T04:34:32;3.60;99.90
37340;DHT22;23223;51.006;7.610;2024-01-07T04:36:58;3.40;99.90
37340;DHT22;23223;51.006;7.610;2024-01-07T04:39:24;3.20;99.90
37340;DHT22;23223;51.006;7.610;2024-01-07T04:41:49;3.10;99.90
37340;DHT22;23223;51.006;7.610;2024-01-07T04:44:15;3.40;99.90
37340;DHT22;23223;51.006;7.610;2024-01-07T04:46:40;3.60;99.90
37340;DHT22;23223;51.006;7.610;2024-01-07T04:49:06;4.10;99.90
37340;DHT22;23223;51.006;7.610;2024-01-07T04:51:32;4.40;99.90
37340;DHT22;23223;51.006;7.610;2024-01-07T04:53:58;4.70;99.90
37340;DHT22;23223;51.006;7.610;2024-01-07T04:56:27;5.10;99.90
37340;DHT22;23223;51.006;7.610;2024-01-07T04:58:53;5.00;99.90
37340;DHT22;23223;51.006;7.610;2024-01-07T05:01:18;4.60;99.90
37340;DHT22;23223;51.006;7.610;2024-01-07T05:03:44;4.50;99.90
37340;DHT22;23223;51.006;7.610;2024-01-07T05:06:12;4.50;99.90
37340;DHT22;23223;51.006;7.610;2024-01-07T05:08:40;4.80;99.90
37340;DHT22;23223;51.006;7.610;2024-01-07T05:11:09;5.10;99.90
37340;DHT22;23223;51.006;7.610;2024-01-07T05:13:38;5.20;99.90
37340;DHT22;23223;51.006;7.610;2024-01-07T05:16:04;5.20;99.90
37340;DHT22;23223;51.006;7.610;2024-01-07T05:18:35;4.90;99.90
37340;DHT22;23223;51.006;7.610;2024-01-07T05:21:05;4.60;99.90
37340;DHT22;23223;51.006;7.610;2024-01-07T05:23:31;4.30;99.90
37340;DHT22;23223;51.006;7.610;2024-01-07T05:26:00;4.20;99.90
37340;DHT22;23223;51.006;7.610;2024-01-07T05:28:26;4.00;99.90
37340;DHT22;23223;51.006;7.610;2024-01-07T05:30:51;3.80;99.90
37340;DHT22;23223;51.006;7.610;2024-01-07T05:33:17;3.50;99.90
37340;DHT22;23223;51.006;7.610;2024-01-07T05:35:42;3.30;99.90
37340;DHT22;23223;51.006;7.610;2024-01-07T05:38:08;3.30;99.90
37340;DHT22;23223;51.006;7.610;2024-01-07T05:40:36;3.40;99.90
37340;DHT22;23223;51.006;7.610;2024-01-07T05:43:02;3.70;99.90
37340;DHT22;23223;51.006;7.610;2024-01-07T05:45:27;3.70;99.90
37340;DHT22;23223;51.006;7.610;2024-01-07T05:47:53;3.70;99.90
37340;DHT22;23223;51.006;7.610;2024-01-07T05:50:18;3.50;99.90
37340;DHT22;23223;51.006;7.610;2024-01-07T05:52:45;3.50;99.90
37340;DHT22;23223;51.006;7.610;2024-01-07T05:55:11;3.80;99.90
37340;DHT22;23223;51.006;7.610;2024-01-07T05:57:37;4.30;99.90
37340;DHT22;23223;51.006;7.610;2024-01-07T06:00:03;4.70;99.90
37340;DHT22;23223;51.006;7.610;2024-01-07T06:02:28;4.70;99.90
37340;DHT22;23223;51.006;7.610;2024-01-07T06:04:54;4.40;99.90
37340;DHT22;23223;51.006;7.610;2024-01-07T06:07:19;4.30;99.90
37340;DHT22;23223;51.006;7.610;2024-01-07T06:09:48;4.20;99.90
37340;DHT22;23223;51.006;7.610;2024-01-07T06:12:14;4.00;99.90
37340;DHT22;23223;51.006;7.610;2024-01-07T06:14:39;4.10;99.90
37340;DHT22;23223;51.006;7.610;2024-01-07T06:17:05;3.90;99.90
37340;DHT22;23223;51.006;7.610;2024-01-07T06:19:30;3.70;99.90
37340;DHT22;23223;51.006;7.610;2024-01-07T06:21:56;4.00;99.90
37340;DHT22;23223;51.006;7.610;2024-01-07T06:24:22;4.50;99.90
37340;DHT22;23223;51.006;7.610;2024-01-07T06:26:47;4.80;99.90
37340;DHT22;23223;51.006;7.610;2024-01-07T06:29:13;5.10;99.90
37340;DHT22;23223;51.006;7.610;2024-01-07T06:31:48;5.00;99.90
37340;DHT22;23223;51.006;7.610;2024-01-07T06:34:14;4.70;99.90
37340;DHT22;23223;51.006;7.610;2024-01-07T06:36:40;4.70;99.90
37340;DHT22;23223;51.006;7.610;2024-01-07T06:39:07;4.70;99.90
37340;DHT22;23223;51.006;7.610;2024-01-07T06:41:34;4.50;99.90
37340;DHT22;23223;51.006;7.610;2024-01-07T06:43:59;4.70;99.90
37340;DHT22;23223;51.006;7.610;2024-01-07T06:46:25;4.60;99.90
37340;DHT22;23223;51.006;7.610;2024-01-07T06:48:53;4.30;99.90
37340;DHT22;23223;51.006;7.610;2024-01-07T06:51:19;4.00;99.90
37340;DHT22;23223;51.006;7.610;2024-01-07T06:53:45;4.30;99.90
37340;DHT22;23223;51.006;7.610;2024-01-07T06:56:10;4.50;99.90
37340;DHT22;23223;51.006;7.610;2024-01-07T06:58:36;4.50;99.90
37340;DHT22;23223;51.006;7.610;2024-01-07T07:01:07;4.70;99.90
37340;DHT22;23223;51.006;7.610;2024-01-07T07:03:32;4.90;99.90
37340;DHT22;23223;51.006;7.610;2024-01-07T07:05:58;4.90;99.90
37340;DHT22;23223;51.006;7.610;2024-01-07T07:08:24;4.90;99.90
37340;DHT22;23223;51.006;7.610;2024-01-07T07:10:52;5.00;99.90
37340;DHT22;23223;51.006;7.610;2024-01-07T07:13:17;5.20;99.90
37340;DHT22;23223;51.006;7.610;2024-01-07T07:15:43;5.20;99.90
37340;DHT22;23223;51.006;7.610;2024-01-07T07:18:11;5.20;99.90
37340;DHT22;23223;51.006;7.610;2024-01-07T07:20:37;5.10;99.90
37340;DHT22;23223;51.006;7.610;2024-01-07T07:23:05;4.90;99.90
37340;DHT22;23223;51.006;7.610;2024-01-07T07:25:34;4.70;99.90
37340;DHT22;23223;51.006;7.610;2024-01-07T07:27:59;4.60;99.90
37340;DHT22;23223;51.006;7.610;2024-01-07T07:30:25;4.60;99.90
37340;DHT22;23223;51.006;7.610;2024-01-07T07:32:51;4.40;99.90
37340;DHT22;23223;51.006;7.610;2024-01-07T07:35:18;4.30;99.90
37340;DHT22;23223;51.006;7.610;2024-01-07T07:37:44;4.30;99.90
37340;DHT22;23223;51.006;7.610;2024-01-07T07:40:10;4.30;99.90
37340;DHT22;23223;51.006;7.610;2024-01-07T07:42:38;4.40;99.90
37340;DHT22;23223;51.006;7.610;2024-01-07T07:45:04;4.70;99.90
37340;DHT22;23223;51.006;7.610;2024-01-07T07:47:30;4.90;99.90
37340;DHT22;23223;51.006;7.610;2024-01-07T07:49:56;5.10;99.90
37340;DHT22;23223;51.006;7.610;2024-01-07T07:52:22;5.20;99.90
37340;DHT22;23223;51.006;7.610;2024-01-07T07:54:53;5.20;99.90
37340;DHT22;23223;51.006;7.610;2024-01-07T07:57:20;5.10;99.90
37340;DHT22;23223;51.006;7.610;2024-01-07T07:59:47;5.30;99.90
37340;DHT22;23223;51.006;7.610;2024-01-07T08:02:13;5.60;99.90
37340;DHT22;23223;51.006;7.610;2024-01-07T08:04:38;5.40;99.90
37340;DHT22;23223;51.006;7.610;2024-01-07T08:07:07;5.20;99.90
37340;DHT22;23223;51.006;7.610;2024-01-07T08:09:36;5.10;99.90
37340;DHT22;23223;51.006;7.610;2024-01-07T08:12:05;5.40;99.90
37340;DHT22;23223;51.006;7.610;2024-01-07T08:14:31;5.30;99.90
37340;DHT22;23223;51.006;7.610;2024-01-07T08:17:00;4.90;99.90
37340;DHT22;23223;51.006;7.610;2024-01-07T08:19:28;4.50;99.90
37340;DHT22;23223;51.006;7.610;2024-01-07T08:21:54;4.60;99.90
37340;DHT22;23223;51.006;7.610;2024-01-07T08:24:21;5.10;99.90
37340;DHT22;23223;51.006;7.610;2024-01-07T08:26:47;5.60;99.90
37340;DHT22;23223;51.006;7.610;2024-01-07T08:29:13;5.90;99.90
37340;DHT22;23223;51.006;7.610;2024-01-07T08:31:39;6.10;99.90
37340;DHT22;23223;51.006;7.610;2024-01-07T08:34:05;5.80;99.90
37340;DHT22;23223;51.006;7.610;2024-01-07T08:36:36;5.60;99.90
37340;DHT22;23223;51.006;7.610;2024-01-07T08:39:02;5.30;99.90
37340;DHT22;23223;51.006;7.610;2024-01-07T08:41:30;5.70;99.90
37340;DHT22;23223;51.006;7.610;2024-01-07T08:43:55;5.90;99.90
37340;DHT22;23223;51.006;7.610;2024-01-07T08:46:21;6.00;99.90
37340;DHT22;23223;51.006;7.610;2024-01-07T08:48:47;6.10;99.90
37340;DHT22;23223;51.006;7.610;2024-01-07T08:51:13;6.20;99.90
37340;DHT22;23223;51.006;7.610;2024-01-07T08:53:39;5.80;99.90
37340;DHT22;23223;51.006;7.610;2024-01-07T08:56:05;5.30;99.90
37340;DHT22;23223;51.006;7.610;2024-01-07T08:58:32;4.90;99.90
37340;DHT22;23223;51.006;7.610;2024-01-07T09:00:58;4.70;99.90
37340;DHT22;23223;51.006;7.610;2024-01-07T09:03:23;4.80;99.90
37340;DHT22;23223;51.006;7.610;2024-01-07T09:05:49;5.10;99.90
37340;DHT22;23223;51.006;7.610;2024-01-07T09:08:14;5.50;99.90
37340;DHT22;23223;51.006;7.610;2024-01-07T09:10:40;5.80;99.90
37340;DHT22;23223;51.006;7.610;2024-01-07T09:13:09;5.90;99.90
37340;DHT22;23223;51.006;7.610;2024-01-07T09:15:34;6.10;99.90
37340;DHT22;23223;51.006;7.610;2024-01-07T09:18:03;6.20;99.90
37340;DHT22;23223;51.006;7.610;2024-01-07T09:20:28;6.20;99.90
37340;DHT22;23223;51.006;7.610;2024-01-07T09:22:57;6.10;99.90
37340;DHT22;23223;51.006;7.610;2024-01-07T09:25:22;6.40;99.90
37340;DHT22;23223;51.006;7.610;2024-01-07T09:27:48;6.40;99.90
37340;DHT22;23223;51.006;7.610;2024-01-07T09:30:14;6.10;99.90
37340;DHT22;23223;51.006;7.610;2024-01-07T09:32:45;6.00;99.90
37340;DHT22;23223;51.006;7.610;2024-01-07T09:35:13;6.00;99.90
37340;DHT22;23223;51.006;7.610;2024-01-07T09:37:40;5.90;99.90
37340;DHT22;23223;51.006;7.610;2024-01-07T09:40:06;5.70;99.90
37340;DHT22;23223;51.006;7.610;2024-01-07T09:42:32;5.40;99.90
37340;DHT22;23223;51.006;7.610;2024-01-07T09:45:02;5.00;99.90
37340;DHT22;23223;51.006;7.610;2024-01-07T09:47:31;4.80;99.90
37340;DHT22;23223;51.006;7.610;2024-01-07T09:49:57;4.90;99.90
37340;DHT22;23223;51.006;7.610;2024-01-07T09:52:23;4.50;99.90
37340;DHT22;23223;51.006;7.610;2024-01-07T09:54:57;4.50;99.90
37340;DHT22;23223;51.006;7.610;2024-01-07T09:57:23;4.50;99.90
37340;DHT22;23223;51.006;7.610;2024-01-07T09:59:49;4.50;99.90
37340;DHT22;23223;51.006;7.610;2024-01-07T10:02:15;4.60;99.90
37340;DHT22;23223;51.006;7.610;2024-01-07T10:04:44;4.60;99.90
37340;DHT22;23223;51.006;7.610;2024-01-07T10:07:12;4.70;99.90
37340;DHT22;23223;51.006;7.610;2024-01-07T10:09:40;4.70;99.90
37340;DHT22;23223;51.006;7.610;2024-01-07T10:12:09;4.90;99.90
37340;DHT22;23223;51.006;7.610;2024-01-07T10:14:35;4.80;99.90
37340;DHT22;23223;51.006;7.610;2024-01-07T10:17:01;5.10;99.90
37340;DHT22;23223;51.006;7.610;2024-01-07T10:19:27;5.20;99.90
37340;DHT22;23223;51.006;7.610;2024-01-07T10:22:03;4.90;99.90
37340;DHT22;23223;51.006;7.610;2024-01-07T10:24:36;4.40;99.90
37340;DHT22;23223;51.006;7.610;2024-01-07T10:27:05;4.20;99.90
37340;DHT22;23223;51.006;7.610;2024-01-07T10:29:32;4.50;99.90
37340;DHT22;23223;51.006;7.610;2024-01-07T10:31:58;4.40;99.90
37340;DHT22;23223;51.006;7.610;2024-01-07T10:34:32;4.60;99.90
37340;DHT22;23223;51.006;7.610;2024-01-07T10:36:59;4.40;99.90
37340;DHT22;23223;51.006;7.610;2024-01-07T10:39:25;4.60;99.90
37340;DHT22;23223;51.006;7.610;2024-01-07T10:41:52;4.70;99.90
37340;DHT22;23223;51.006;7.610;2024-01-07T10:44:29;4.70;99.90
37340;DHT22;23223;51.006;7.610;2024-01-07T10:46:56;4.70;99.90
37340;DHT22;23223;51.006;7.610;2024-01-07T10:49:24;4.80;99.90
37340;DHT22;23223;51.006;7.610;2024-01-07T10:52:03;4.80;99.90
37340;DHT22;23223;51.006;7.610;2024-01-07T10:54:30;4.80;99.90
37340;DHT22;23223;51.006;7.610;2024-01-07T10:57:06;4.70;99.90
37340;DHT22;23223;51.006;7.610;2024-01-07T10:59:34;4.70;99.90
37340;DHT22;23223;51.006;7.610;2024-01-07T11:02:00;4.60;99.90
37340;DHT22;23223;51.006;7.610;2024-01-07T11:04:41;4.80;99.90
37340;DHT22;23223;51.006;7.610;2024-01-07T11:07:34;4.90;99.90
37340;DHT22;23223;51.006;7.610;2024-01-07T11:10:12;4.70;99.90
37340;DHT22;23223;51.006;7.610;2024-01-07T11:12:42;4.80;99.90
37340;DHT22;23223;51.006;7.610;2024-01-07T11:15:07;4.60;99.90
37340;DHT22;23223;51.006;7.610;2024-01-07T11:17:42;4.80;99.90
37340;DHT22;23223;51.006;7.610;2024-01-07T11:20:17;4.40;99.90
37340;DHT22;23223;51.006;7.610;2024-01-07T11:22:44;3.80;99.90
37340;DHT22;23223;51.006;7.610;2024-01-07T11:25:29;3.80;99.90
37340;DHT22;23223;51.006;7.610;2024-01-07T11:28:01;3.60;99.90
37340;DHT22;23223;51.006;7.610;2024-01-07T11:30:27;3.80;99.90
37340;DHT22;23223;51.006;7.610;2024-01-07T11:33:02;4.10;99.90
37340;DHT22;23223;51.006;7.610;2024-01-07T11:35:59;4.00;99.90
37340;DHT22;23223;51.006;7.610;2024-01-07T11:38:26;4.40;99.90
37340;DHT22;23223;51.006;7.610;2024-01-07T11:40:52;4.70;99.90
37340;DHT22;23223;51.006;7.610;2024-01-07T11:43:18;4.80;99.90
37340;DHT22;23223;51.006;7.610;2024-01-07T11:45:45;4.60;99.90
37340;DHT22;23223;51.006;7.610;2024-01-07T11:48:10;4.70;99.90
37340;DHT22;23223;51.006;7.610;2024-01-07T11:50:41;4.80;99.90
37340;DHT22;23223;51.006;7.610;2024-01-07T11:53:07;5.00;99.90
37340;DHT22;23223;51.006;7.610;2024-01-07T11:55:33;5.10;99.90
37340;DHT22;23223;51.006;7.610;2024-01-07T11:58:01;4.70;99.90
37340;DHT22;23223;51.006;7.610;2024-01-07T12:00:32;4.80;99.90
37340;DHT22;23223;51.006;7.610;2024-01-07T12:03:02;5.00;99.90
37340;DHT22;23223;51.006;7.610;2024-01-07T12:05:29;4.90;99.90
37340;DHT22;23223;51.006;7.610;2024-01-07T12:07:54;4.80;99.90
37340;DHT22;23223;51.006;7.610;2024-01-07T12:10:21;4.40;99.90
37340;DHT22;23223;51.006;7.610;2024-01-07T12:12:47;4.40;99.90
37340;DHT22;23223;51.006;7.610;2024-01-07T12:15:13;4.10;99.90
37340;DHT22;23223;51.006;7.610;2024-01-07T12:17:39;4.00;99.90
37340;DHT22;23223;51.006;7.610;2024-01-07T12:20:05;3.80;99.90
37340;DHT22;23223;51.006;7.610;2024-01-07T12:22:32;4.10;99.90
37340;DHT22;23223;51.006;7.610;2024-01-07T12:25:07;4.20;99.90
37340;DHT22;23223;51.006;7.610;2024-01-07T12:27:34;4.00;99.90
37340;DHT22;23223;51.006;7.610;2024-01-07T12:30:01;4.10;99.90
37340;DHT22;23223;51.006;7.610;2024-01-07T12:32:30;4.10;99.90
37340;DHT22;23223;51.006;7.610;2024-01-07T12:35:02;4.20;99.90
37340;DHT22;23223;51.006;7.610;2024-01-07T12:37:28;4.50;99.90
37340;DHT22;23223;51.006;7.610;2024-01-07T12:39:54;4.70;99.90
37340;DHT22;23223;51.006;7.610;2024-01-07T12:42:20;4.80;99.90
37340;DHT22;23223;51.006;7.610;2024-01-07T12:44:49;4.70;99.90
37340;DHT22;23223;51.006;7.610;2024-01-07T12:47:15;4.60;99.90
37340;DHT22;23223;51.006;7.610;2024-01-07T12:49:41;4.30;99.90
37340;DHT22;23223;51.006;7.610;2024-01-07T12:52:07;4.40;99.90
37340;DHT22;23223;51.006;7.610;2024-01-07T12:54:32;4.10;99.90
37340;DHT22;23223;51.006;7.610;2024-01-07T12:56:59;4.10;99.90
37340;DHT22;23223;51.006;7.610;2024-01-07T12:59:25;4.10;99.90
37340;DHT22;23223;51.006;7.610;2024-01-07T13:01:51;4.20;99.90
37340;DHT22;23223;51.006;7.610;2024-01-07T13:04:17;4.10;99.90
37340;DHT22;23223;51.006;7.610;2024-01-07T13:06:43;4.00;99.90
37340;DHT22;23223;51.006;7.610;2024-01-07T13:09:08;4.10;99.90
37340;DHT22;23223;51.006;7.610;2024-01-07T13:11:35;4.30;99.90
37340;DHT22;23223;51.006;7.610;2024-01-07T13:14:00;4.30;99.90
37340;DHT22;23223;51.006;7.610;2024-01-07T13:16:27;4.10;99.90
37340;DHT22;23223;51.006;7.610;2024-01-07T13:18:54;4.10;99.90
37340;DHT22;23223;51.006;7.610;2024-01-07T13:21:20;4.10;99.90
37340;DHT22;23223;51.006;7.610;2024-01-07T13:23:46;3.50;99.90
37340;DHT22;23223;51.006;7.610;2024-01-07T13:26:13;3.70;99.90
37340;DHT22;23223;51.006;7.610;2024-01-07T13:28:39;3.90;99.90
37340;DHT22;23223;51.006;7.610;2024-01-07T13:31:05;3.80;99.90
37340;DHT22;23223;51.006;7.610;2024-01-07T13:33:32;3.70;99.90
37340;DHT22;23223;51.006;7.610;2024-01-07T13:35:58;3.80;99.90
37340;DHT22;23223;51.006;7.610;2024-01-07T13:38:23;4.00;99.90
37340;DHT22;23223;51.006;7.610;2024-01-07T13:40:50;4.00;99.90
37340;DHT22;23223;51.006;7.610;2024-01-07T13:43:15;4.00;99.90
37340;DHT22;23223;51.006;7.610;2024-01-07T13:45:41;3.90;99.90
37340;DHT22;23223;51.006;7.610;2024-01-07T13:48:07;3.90;99.90
37340;DHT22;23223;51.006;7.610;2024-01-07T13:50:33;4.00;99.90
37340;DHT22;23223;51.006;7.610;2024-01-07T13:52:58;3.90;99.90
37340;DHT22;23223;51.006;7.610;2024-01-07T13:55:24;3.50;99.90
37340;DHT22;23223;51.006;7.610;2024-01-07T13:57:50;3.30;99.90
37340;DHT22;23223;51.006;7.610;2024-01-07T14:00:16;3.10;99.90
37340;DHT22;23223;51.006;7.610;2024-01-07T14:02:44;3.30;99.90
37340;DHT22;23223;51.006;7.610;2024-01-07T14:05:15;3.50;99.90
37340;DHT22;23223;51.006;7.610;2024-01-07T14:07:40;3.40;99.90
37340;DHT22;23223;51.006;7.610;2024-01-07T14:10:07;3.30;99.90
37340;DHT22;23223;51.006;7.610;2024-01-07T14:12:34;3.50;99.90
37340;DHT22;23223;51.006;7.610;2024-01-07T14:14:59;3.10;99.90
37340;DHT22;23223;51.006;7.610;2024-01-07T14:17:25;2.80;99.90
37340;DHT22;23223;51.006;7.610;2024-01-07T14:19:51;2.90;99.90
37340;DHT22;23223;51.006;7.610;2024-01-07T14:22:20;2.50;99.90
37340;DHT22;23223;51.006;7.610;2024-01-07T14:24:47;2.10;99.90
37340;DHT22;23223;51.006;7.610;2024-01-07T14:27:14;2.10;99.90
37340;DHT22;23223;51.006;7.610;2024-01-07T14:29:40;2.20;99.90
37340;DHT22;23223;51.006;7.610;2024-01-07T14:32:06;1.90;99.90
37340;DHT22;23223;51.006;7.610;2024-01-07T14:34:32;1.30;99.90
37340;DHT22;23223;51.006;7.610;2024-01-07T14:36:58;1.40;99.90
37340;DHT22;23223;51.006;7.610;2024-01-07T14:39:23;1.30;99.90
37340;DHT22;23223;51.006;7.610;2024-01-07T14:41:49;1.30;99.90
37340;DHT22;23223;51.006;7.610;2024-01-07T14:44:14;1.20;99.90
37340;DHT22;23223;51.006;7.610;2024-01-07T14:46:40;1.30;99.90
37340;DHT22;23223;51.006;7.610;2024-01-07T14:49:06;1.40;99.90
37340;DHT22;23223;51.006;7.610;2024-01-07T14:51:32;1.60;99.90
37340;DHT22;23223;51.006;7.610;2024-01-07T14:53:58;1.70;99.90
37340;DHT22;23223;51.006;7.610;2024-01-07T14:56:24;2.00;99.90
37340;DHT22;23223;51.006;7.610;2024-01-07T14:58:49;2.40;99.90
37340;DHT22;23223;51.006;7.610;2024-01-07T15:01:16;2.60;99.90
37340;DHT22;23223;51.006;7.610;2024-01-07T15:03:41;2.20;99.90
37340;DHT22;23223;51.006;7.610;2024-01-07T15:06:07;2.20;99.90
37340;DHT22;23223;51.006;7.610;2024-01-07T15:08:34;2.20;99.90
37340;DHT22;23223;51.006;7.610;2024-01-07T15:11:00;1.90;99.90
37340;DHT22;23223;51.006;7.610;2024-01-07T15:13:25;1.70;99.90
37340;DHT22;23223;51.006;7.610;2024-01-07T15:15:52;1.50;99.90
37340;DHT22;23223;51.006;7.610;2024-01-07T15:18:18;1.60;99.90
37340;DHT22;23223;51.006;7.610;2024-01-07T15:20:43;1.70;99.90
37340;DHT22;23223;51.006;7.610;2024-01-07T15:23:09;1.60;99.90
37340;DHT22;23223;51.006;7.610;2024-01-07T15:25:34;1.60;99.90
37340;DHT22;23223;51.006;7.610;2024-01-07T15:28:00;1.40;99.90
37340;DHT22;23223;51.006;7.610;2024-01-07T15:30:26;1.30;99.90
37340;DHT22;23223;51.006;7.610;2024-01-07T15:32:51;1.40;99.90
37340;DHT22;23223;51.006;7.610;2024-01-07T15:35:17;1.30;99.90
37340;DHT22;23223;51.006;7.610;2024-01-07T15:37:43;1.30;99.90
37340;DHT22;23223;51.006;7.610;2024-01-07T15:40:09;1.30;99.90
37340;DHT22;23223;51.006;7.610;2024-01-07T15:42:34;1.20;99.90